Holiday Island, Arkansas
Current Conditions -  °F | °C
As of 1:36 PM on Thursday 23 Oct 2014 (Local Time) from KROG Reporting Station
Light Rain Light Rain  
Wind Chill: 57°   Ceiling: 1500
Heat Index: 57°   Visibility: 10mi
Dew Point: 54°   Wind: 7mph
Humidity: 88%   Direction: 220°SW
Pressure: 30.19"   Gusts: NA
Location:  36.4778°N, 93.7346°W
Report Text: KROG 231836Z 22006KT 10SM -RA BKN015 OVC055 14/12 A3019 RMK AO2 P0000
Loading
Personal Weather Stations






























Interactive Weather Map
Tropical Storm Tracking
New forecast layout! Learn more

10-Day Weather Forecast

Advertisements
Track Severe Weather on mobile